sensor_id;sensor_type;location;lat;lon;timestamp;P1;durP1;ratioP1;P2;durP2;ratioP2
974;SDS011;6115;49.296;10.602;2024-01-16T00:03:04;74.00;;;20.97;;
974;SDS011;6115;49.296;10.602;2024-01-16T00:08:05;73.87;;;21.07;;
974;SDS011;6115;49.296;10.602;2024-01-16T00:13:05;76.07;;;22.30;;
974;SDS011;6115;49.296;10.602;2024-01-16T00:18:06;74.90;;;22.43;;
974;SDS011;6115;49.296;10.602;2024-01-16T00:23:08;79.83;;;23.77;;
974;SDS011;6115;49.296;10.602;2024-01-16T00:28:08;76.20;;;23.63;;
974;SDS011;6115;49.296;10.602;2024-01-16T00:33:09;74.80;;;21.80;;
974;SDS011;6115;49.296;10.602;2024-01-16T00:38:10;75.20;;;22.97;;
974;SDS011;6115;49.296;10.602;2024-01-16T00:43:10;74.77;;;21.43;;
974;SDS011;6115;49.296;10.602;2024-01-16T00:48:11;74.37;;;21.57;;
974;SDS011;6115;49.296;10.602;2024-01-16T00:53:13;76.47;;;24.50;;
974;SDS011;6115;49.296;10.602;2024-01-16T00:58:16;74.40;;;21.50;;
974;SDS011;6115;49.296;10.602;2024-01-16T01:03:16;75.40;;;21.97;;
974;SDS011;6115;49.296;10.602;2024-01-16T01:08:17;75.73;;;23.87;;
974;SDS011;6115;49.296;10.602;2024-01-16T01:13:17;77.60;;;24.50;;
974;SDS011;6115;49.296;10.602;2024-01-16T01:18:18;75.10;;;22.87;;
974;SDS011;6115;49.296;10.602;2024-01-16T01:23:19;75.20;;;21.87;;
974;SDS011;6115;49.296;10.602;2024-01-16T01:28:19;75.00;;;22.50;;
974;SDS011;6115;49.296;10.602;2024-01-16T01:33:20;74.20;;;21.50;;
974;SDS011;6115;49.296;10.602;2024-01-16T01:38:21;74.60;;;21.47;;
974;SDS011;6115;49.296;10.602;2024-01-16T01:43:24;75.27;;;23.20;;
974;SDS011;6115;49.296;10.602;2024-01-16T01:48:25;74.40;;;21.87;;
974;SDS011;6115;49.296;10.602;2024-01-16T01:53:26;74.13;;;20.73;;
974;SDS011;6115;49.296;10.602;2024-01-16T01:58:28;73.83;;;20.57;;
974;SDS011;6115;49.296;10.602;2024-01-16T02:03:29;74.30;;;21.60;;
974;SDS011;6115;49.296;10.602;2024-01-16T02:08:32;74.60;;;20.60;;
974;SDS011;6115;49.296;10.602;2024-01-16T02:13:32;73.90;;;21.10;;
974;SDS011;6115;49.296;10.602;2024-01-16T02:18:33;74.47;;;22.00;;
974;SDS011;6115;49.296;10.602;2024-01-16T02:23:34;74.53;;;21.57;;
974;SDS011;6115;49.296;10.602;2024-01-16T02:28:34;73.70;;;20.77;;
974;SDS011;6115;49.296;10.602;2024-01-16T02:33:35;74.90;;;21.53;;
974;SDS011;6115;49.296;10.602;2024-01-16T02:38:35;74.20;;;21.27;;
974;SDS011;6115;49.296;10.602;2024-01-16T02:43:36;73.70;;;20.20;;
974;SDS011;6115;49.296;10.602;2024-01-16T02:48:37;73.87;;;20.70;;
974;SDS011;6115;49.296;10.602;2024-01-16T02:53:37;74.70;;;21.00;;
974;SDS011;6115;49.296;10.602;2024-01-16T02:58:38;74.60;;;21.40;;
974;SDS011;6115;49.296;10.602;2024-01-16T03:03:39;74.70;;;21.40;;
974;SDS011;6115;49.296;10.602;2024-01-16T03:08:39;74.20;;;20.07;;
974;SDS011;6115;49.296;10.602;2024-01-16T03:13:40;74.00;;;20.37;;
974;SDS011;6115;49.296;10.602;2024-01-16T03:18:40;74.90;;;21.53;;
974;SDS011;6115;49.296;10.602;2024-01-16T03:23:41;74.10;;;20.90;;
974;SDS011;6115;49.296;10.602;2024-01-16T03:28:42;73.53;;;19.97;;
974;SDS011;6115;49.296;10.602;2024-01-16T03:33:42;74.30;;;21.43;;
974;SDS011;6115;49.296;10.602;2024-01-16T03:38:43;74.20;;;21.13;;
974;SDS011;6115;49.296;10.602;2024-01-16T03:43:43;75.03;;;21.97;;
974;SDS011;6115;49.296;10.602;2024-01-16T03:48:44;76.07;;;22.30;;
974;SDS011;6115;49.296;10.602;2024-01-16T03:53:45;73.60;;;20.80;;
974;SDS011;6115;49.296;10.602;2024-01-16T03:58:45;74.43;;;21.50;;
974;SDS011;6115;49.296;10.602;2024-01-16T04:03:46;73.83;;;21.20;;
974;SDS011;6115;49.296;10.602;2024-01-16T04:08:46;75.10;;;22.90;;
974;SDS011;6115;49.296;10.602;2024-01-16T04:13:47;73.90;;;21.23;;
974;SDS011;6115;49.296;10.602;2024-01-16T04:18:48;76.17;;;22.80;;
974;SDS011;6115;49.296;10.602;2024-01-16T04:23:48;75.10;;;21.93;;
974;SDS011;6115;49.296;10.602;2024-01-16T04:28:49;76.70;;;22.10;;
974;SDS011;6115;49.296;10.602;2024-01-16T04:33:49;75.57;;;23.43;;
974;SDS011;6115;49.296;10.602;2024-01-16T04:38:50;74.40;;;20.73;;
974;SDS011;6115;49.296;10.602;2024-01-16T04:43:50;75.10;;;22.00;;
974;SDS011;6115;49.296;10.602;2024-01-16T04:48:51;76.57;;;21.20;;
974;SDS011;6115;49.296;10.602;2024-01-16T04:53:51;74.30;;;21.07;;
974;SDS011;6115;49.296;10.602;2024-01-16T04:58:52;75.70;;;21.10;;
974;SDS011;6115;49.296;10.602;2024-01-16T05:03:53;75.60;;;21.80;;
974;SDS011;6115;49.296;10.602;2024-01-16T05:08:54;73.90;;;19.97;;
974;SDS011;6115;49.296;10.602;2024-01-16T05:13:55;76.27;;;25.03;;
974;SDS011;6115;49.296;10.602;2024-01-16T05:18:58;78.80;;;23.33;;
974;SDS011;6115;49.296;10.602;2024-01-16T05:23:59;74.30;;;21.13;;
974;SDS011;6115;49.296;10.602;2024-01-16T05:29:00;74.37;;;21.60;;
974;SDS011;6115;49.296;10.602;2024-01-16T05:34:00;78.80;;;21.53;;
974;SDS011;6115;49.296;10.602;2024-01-16T05:39:01;74.90;;;21.17;;
974;SDS011;6115;49.296;10.602;2024-01-16T05:44:02;79.20;;;22.20;;
974;SDS011;6115;49.296;10.602;2024-01-16T05:49:06;74.67;;;22.00;;
974;SDS011;6115;49.296;10.602;2024-01-16T05:54:06;75.60;;;22.27;;
974;SDS011;6115;49.296;10.602;2024-01-16T05:59:07;74.77;;;22.20;;
974;SDS011;6115;49.296;10.602;2024-01-16T06:04:07;76.67;;;22.93;;
974;SDS011;6115;49.296;10.602;2024-01-16T06:09:08;75.90;;;22.03;;
974;SDS011;6115;49.296;10.602;2024-01-16T06:14:08;75.23;;;21.93;;
974;SDS011;6115;49.296;10.602;2024-01-16T06:19:09;77.00;;;22.00;;
974;SDS011;6115;49.296;10.602;2024-01-16T06:24:10;73.90;;;19.97;;
974;SDS011;6115;49.296;10.602;2024-01-16T06:29:13;74.60;;;20.93;;
974;SDS011;6115;49.296;10.602;2024-01-16T06:34:13;75.80;;;21.33;;
974;SDS011;6115;49.296;10.602;2024-01-16T06:39:14;74.67;;;21.87;;
974;SDS011;6115;49.296;10.602;2024-01-16T06:44:14;75.10;;;21.60;;
974;SDS011;6115;49.296;10.602;2024-01-16T06:49:15;75.60;;;23.30;;
974;SDS011;6115;49.296;10.602;2024-01-16T06:54:16;74.53;;;22.23;;
974;SDS011;6115;49.296;10.602;2024-01-16T06:59:16;74.47;;;22.33;;
974;SDS011;6115;49.296;10.602;2024-01-16T07:04:19;76.00;;;21.43;;
974;SDS011;6115;49.296;10.602;2024-01-16T07:09:20;75.67;;;21.60;;
974;SDS011;6115;49.296;10.602;2024-01-16T07:14:20;76.77;;;26.33;;
974;SDS011;6115;49.296;10.602;2024-01-16T07:19:21;74.70;;;21.20;;
974;SDS011;6115;49.296;10.602;2024-01-16T07:24:22;74.70;;;21.13;;
974;SDS011;6115;49.296;10.602;2024-01-16T07:29:23;74.30;;;21.30;;
974;SDS011;6115;49.296;10.602;2024-01-16T07:34:23;75.50;;;23.00;;
974;SDS011;6115;49.296;10.602;2024-01-16T07:39:25;75.07;;;22.53;;
974;SDS011;6115;49.296;10.602;2024-01-16T07:44:26;75.10;;;22.40;;
974;SDS011;6115;49.296;10.602;2024-01-16T07:49:26;76.20;;;23.17;;
974;SDS011;6115;49.296;10.602;2024-01-16T07:54:27;74.97;;;22.47;;
974;SDS011;6115;49.296;10.602;2024-01-16T07:59:27;79.80;;;25.60;;
974;SDS011;6115;49.296;10.602;2024-01-16T08:04:28;75.07;;;22.10;;
974;SDS011;6115;49.296;10.602;2024-01-16T08:09:29;75.27;;;22.13;;
974;SDS011;6115;49.296;10.602;2024-01-16T08:14:29;75.77;;;23.70;;
974;SDS011;6115;49.296;10.602;2024-01-16T08:19:30;74.70;;;22.70;;
974;SDS011;6115;49.296;10.602;2024-01-16T08:24:31;74.20;;;22.13;;
974;SDS011;6115;49.296;10.602;2024-01-16T08:29:32;78.37;;;24.73;;
974;SDS011;6115;49.296;10.602;2024-01-16T08:34:32;76.23;;;23.20;;
974;SDS011;6115;49.296;10.602;2024-01-16T08:39:33;74.97;;;22.23;;
974;SDS011;6115;49.296;10.602;2024-01-16T08:44:34;74.77;;;22.10;;
974;SDS011;6115;49.296;10.602;2024-01-16T08:49:34;75.23;;;22.53;;
974;SDS011;6115;49.296;10.602;2024-01-16T08:54:35;75.77;;;22.93;;
974;SDS011;6115;49.296;10.602;2024-01-16T08:59:36;73.80;;;21.30;;
974;SDS011;6115;49.296;10.602;2024-01-16T09:04:36;74.90;;;22.43;;
974;SDS011;6115;49.296;10.602;2024-01-16T09:09:37;77.67;;;22.90;;
974;SDS011;6115;49.296;10.602;2024-01-16T09:14:38;78.70;;;23.80;;
974;SDS011;6115;49.296;10.602;2024-01-16T09:19:39;74.87;;;22.43;;
974;SDS011;6115;49.296;10.602;2024-01-16T09:24:39;75.00;;;22.57;;
974;SDS011;6115;49.296;10.602;2024-01-16T09:29:40;74.17;;;22.47;;
974;SDS011;6115;49.296;10.602;2024-01-16T09:34:40;79.33;;;24.60;;
974;SDS011;6115;49.296;10.602;2024-01-16T09:39:41;74.80;;;22.93;;
974;SDS011;6115;49.296;10.602;2024-01-16T09:44:42;74.83;;;22.80;;
974;SDS011;6115;49.296;10.602;2024-01-16T09:49:43;75.20;;;22.87;;
974;SDS011;6115;49.296;10.602;2024-01-16T09:54:46;73.97;;;22.00;;
974;SDS011;6115;49.296;10.602;2024-01-16T09:59:48;74.40;;;22.20;;
974;SDS011;6115;49.296;10.602;2024-01-16T10:04:49;78.97;;;24.70;;
974;SDS011;6115;49.296;10.602;2024-01-16T10:09:50;84.07;;;26.70;;
974;SDS011;6115;49.296;10.602;2024-01-16T10:14:50;73.27;;;21.70;;
974;SDS011;6115;49.296;10.602;2024-01-16T10:19:52;80.23;;;23.87;;
974;SDS011;6115;49.296;10.602;2024-01-16T10:25:04;73.70;;;21.80;;
974;SDS011;6115;49.296;10.602;2024-01-16T10:30:09;72.90;;;20.27;;
974;SDS011;6115;49.296;10.602;2024-01-16T10:35:13;73.73;;;21.60;;
974;SDS011;6115;49.296;10.602;2024-01-16T10:40:17;74.10;;;21.50;;
974;SDS011;6115;49.296;10.602;2024-01-16T10:45:18;74.37;;;22.27;;
974;SDS011;6115;49.296;10.602;2024-01-16T10:50:19;73.60;;;21.43;;
974;SDS011;6115;49.296;10.602;2024-01-16T10:55:21;73.60;;;21.07;;
974;SDS011;6115;49.296;10.602;2024-01-16T11:00:23;72.70;;;19.97;;
974;SDS011;6115;49.296;10.602;2024-01-16T11:05:24;72.00;;;18.30;;
974;SDS011;6115;49.296;10.602;2024-01-16T11:10:25;72.60;;;19.57;;
974;SDS011;6115;49.296;10.602;2024-01-16T11:15:28;74.03;;;18.30;;
974;SDS011;6115;49.296;10.602;2024-01-16T11:20:29;72.17;;;19.20;;
974;SDS011;6115;49.296;10.602;2024-01-16T11:25:31;73.23;;;19.60;;
974;SDS011;6115;49.296;10.602;2024-01-16T11:30:32;71.97;;;19.37;;
974;SDS011;6115;49.296;10.602;2024-01-16T11:35:34;73.07;;;19.80;;
974;SDS011;6115;49.296;10.602;2024-01-16T11:40:36;72.93;;;19.10;;
974;SDS011;6115;49.296;10.602;2024-01-16T11:50:38;71.13;;;17.70;;
974;SDS011;6115;49.296;10.602;2024-01-16T11:55:51;73.23;;;20.17;;
974;SDS011;6115;49.296;10.602;2024-01-16T12:01:21;73.10;;;19.67;;
974;SDS011;6115;49.296;10.602;2024-01-16T12:06:22;71.90;;;17.43;;
974;SDS011;6115;49.296;10.602;2024-01-16T12:11:23;72.20;;;18.10;;
974;SDS011;6115;49.296;10.602;2024-01-16T12:16:24;82.70;;;18.37;;
974;SDS011;6115;49.296;10.602;2024-01-16T12:21:25;73.67;;;19.13;;
974;SDS011;6115;49.296;10.602;2024-01-16T12:26:26;73.27;;;18.23;;
974;SDS011;6115;49.296;10.602;2024-01-16T12:31:27;72.00;;;17.73;;
974;SDS011;6115;49.296;10.602;2024-01-16T12:36:29;71.17;;;17.40;;
974;SDS011;6115;49.296;10.602;2024-01-16T12:41:43;73.73;;;18.80;;
974;SDS011;6115;49.296;10.602;2024-01-16T12:46:55;72.87;;;19.37;;
974;SDS011;6115;49.296;10.602;2024-01-16T12:52:16;72.03;;;18.43;;
974;SDS011;6115;49.296;10.602;2024-01-16T12:57:21;73.37;;;17.70;;
974;SDS011;6115;49.296;10.602;2024-01-16T13:02:22;73.83;;;18.30;;
974;SDS011;6115;49.296;10.602;2024-01-16T13:07:25;71.23;;;16.67;;
974;SDS011;6115;49.296;10.602;2024-01-16T13:12:26;78.20;;;18.63;;
974;SDS011;6115;49.296;10.602;2024-01-16T13:17:33;72.17;;;19.20;;
974;SDS011;6115;49.296;10.602;2024-01-16T13:22:34;72.13;;;19.20;;
974;SDS011;6115;49.296;10.602;2024-01-16T13:27:35;75.90;;;18.87;;
974;SDS011;6115;49.296;10.602;2024-01-16T13:32:36;72.97;;;17.97;;
974;SDS011;6115;49.296;10.602;2024-01-16T13:37:37;72.40;;;18.57;;
974;SDS011;6115;49.296;10.602;2024-01-16T13:42:38;72.10;;;18.70;;
974;SDS011;6115;49.296;10.602;2024-01-16T13:47:39;82.20;;;21.23;;
974;SDS011;6115;49.296;10.602;2024-01-16T13:52:40;73.80;;;20.80;;
974;SDS011;6115;49.296;10.602;2024-01-16T13:57:41;73.40;;;18.90;;
974;SDS011;6115;49.296;10.602;2024-01-16T14:02:42;73.57;;;19.23;;
974;SDS011;6115;49.296;10.602;2024-01-16T14:07:44;72.07;;;18.33;;
974;SDS011;6115;49.296;10.602;2024-01-16T14:12:48;73.27;;;18.70;;
974;SDS011;6115;49.296;10.602;2024-01-16T14:17:51;75.50;;;20.67;;
974;SDS011;6115;49.296;10.602;2024-01-16T14:22:56;74.47;;;18.83;;
974;SDS011;6115;49.296;10.602;2024-01-16T14:28:01;74.90;;;20.17;;
974;SDS011;6115;49.296;10.602;2024-01-16T14:33:03;73.30;;;19.90;;
974;SDS011;6115;49.296;10.602;2024-01-16T14:38:06;72.47;;;19.20;;
974;SDS011;6115;49.296;10.602;2024-01-16T14:43:07;71.77;;;17.77;;
974;SDS011;6115;49.296;10.602;2024-01-16T14:48:08;71.90;;;17.90;;
974;SDS011;6115;49.296;10.602;2024-01-16T14:53:10;72.60;;;18.90;;
974;SDS011;6115;49.296;10.602;2024-01-16T14:58:11;73.07;;;18.90;;
974;SDS011;6115;49.296;10.602;2024-01-16T15:03:11;71.47;;;17.80;;
974;SDS011;6115;49.296;10.602;2024-01-16T15:08:13;71.87;;;18.10;;
974;SDS011;6115;49.296;10.602;2024-01-16T15:13:14;72.60;;;18.60;;
974;SDS011;6115;49.296;10.602;2024-01-16T15:18:15;72.27;;;17.37;;
974;SDS011;6115;49.296;10.602;2024-01-16T15:23:16;71.87;;;17.77;;
974;SDS011;6115;49.296;10.602;2024-01-16T15:28:17;71.60;;;17.73;;
974;SDS011;6115;49.296;10.602;2024-01-16T15:33:17;72.17;;;18.43;;
974;SDS011;6115;49.296;10.602;2024-01-16T15:38:18;72.43;;;18.30;;
974;SDS011;6115;49.296;10.602;2024-01-16T15:43:18;73.40;;;19.20;;
974;SDS011;6115;49.296;10.602;2024-01-16T15:48:19;75.33;;;18.80;;
974;SDS011;6115;49.296;10.602;2024-01-16T15:53:19;71.97;;;18.03;;
974;SDS011;6115;49.296;10.602;2024-01-16T15:58:20;73.67;;;18.80;;
974;SDS011;6115;49.296;10.602;2024-01-16T16:03:20;78.33;;;18.30;;
974;SDS011;6115;49.296;10.602;2024-01-16T16:08:21;73.40;;;18.70;;
974;SDS011;6115;49.296;10.602;2024-01-16T16:13:22;77.30;;;21.60;;
974;SDS011;6115;49.296;10.602;2024-01-16T16:18:24;74.17;;;20.20;;
974;SDS011;6115;49.296;10.602;2024-01-16T16:23:24;84.90;;;21.30;;
974;SDS011;6115;49.296;10.602;2024-01-16T16:28:25;72.67;;;18.60;;
974;SDS011;6115;49.296;10.602;2024-01-16T16:33:25;74.27;;;19.70;;
974;SDS011;6115;49.296;10.602;2024-01-16T16:38:26;74.93;;;20.10;;
974;SDS011;6115;49.296;10.602;2024-01-16T16:43:26;74.10;;;18.90;;
974;SDS011;6115;49.296;10.602;2024-01-16T16:48:28;75.27;;;20.63;;
974;SDS011;6115;49.296;10.602;2024-01-16T16:53:28;74.97;;;19.17;;
974;SDS011;6115;49.296;10.602;2024-01-16T16:58:29;73.40;;;19.40;;
974;SDS011;6115;49.296;10.602;2024-01-16T17:03:29;72.90;;;18.50;;
974;SDS011;6115;49.296;10.602;2024-01-16T17:08:34;75.70;;;20.43;;
974;SDS011;6115;49.296;10.602;2024-01-16T17:13:36;74.00;;;19.10;;
974;SDS011;6115;49.296;10.602;2024-01-16T17:18:38;78.53;;;22.10;;
974;SDS011;6115;49.296;10.602;2024-01-16T17:23:39;77.67;;;21.27;;
974;SDS011;6115;49.296;10.602;2024-01-16T17:28:40;76.97;;;20.67;;
974;SDS011;6115;49.296;10.602;2024-01-16T17:33:41;73.60;;;19.80;;
974;SDS011;6115;49.296;10.602;2024-01-16T17:38:43;73.63;;;19.80;;
974;SDS011;6115;49.296;10.602;2024-01-16T17:43:44;74.60;;;19.80;;
974;SDS011;6115;49.296;10.602;2024-01-16T17:48:45;73.37;;;18.93;;
974;SDS011;6115;49.296;10.602;2024-01-16T17:53:46;76.50;;;20.97;;
974;SDS011;6115;49.296;10.602;2024-01-16T17:58:47;74.17;;;20.03;;
974;SDS011;6115;49.296;10.602;2024-01-16T18:03:48;74.70;;;20.47;;
974;SDS011;6115;49.296;10.602;2024-01-16T18:08:48;78.10;;;21.07;;
974;SDS011;6115;49.296;10.602;2024-01-16T18:13:49;75.30;;;19.97;;
974;SDS011;6115;49.296;10.602;2024-01-16T18:18:50;74.30;;;20.10;;
974;SDS011;6115;49.296;10.602;2024-01-16T18:23:51;74.47;;;20.50;;
974;SDS011;6115;49.296;10.602;2024-01-16T18:28:52;76.70;;;21.60;;
974;SDS011;6115;49.296;10.602;2024-01-16T18:33:54;76.80;;;21.00;;
974;SDS011;6115;49.296;10.602;2024-01-16T18:38:54;74.40;;;20.23;;
974;SDS011;6115;49.296;10.602;2024-01-16T18:43:55;77.13;;;21.10;;
974;SDS011;6115;49.296;10.602;2024-01-16T18:48:56;74.13;;;18.57;;
974;SDS011;6115;49.296;10.602;2024-01-16T18:53:57;73.60;;;18.40;;
974;SDS011;6115;49.296;10.602;2024-01-16T18:58:57;75.17;;;19.73;;
974;SDS011;6115;49.296;10.602;2024-01-16T19:03:58;74.47;;;18.50;;
974;SDS011;6115;49.296;10.602;2024-01-16T19:09:00;74.57;;;18.57;;
974;SDS011;6115;49.296;10.602;2024-01-16T19:14:00;73.60;;;18.30;;
974;SDS011;6115;49.296;10.602;2024-01-16T19:19:01;75.23;;;19.30;;
974;SDS011;6115;49.296;10.602;2024-01-16T19:24:01;74.20;;;18.00;;
974;SDS011;6115;49.296;10.602;2024-01-16T19:29:04;75.13;;;19.47;;
974;SDS011;6115;49.296;10.602;2024-01-16T19:34:08;74.17;;;18.57;;
974;SDS011;6115;49.296;10.602;2024-01-16T19:39:09;74.27;;;16.97;;
974;SDS011;6115;49.296;10.602;2024-01-16T19:44:16;73.37;;;16.80;;
974;SDS011;6115;49.296;10.602;2024-01-16T19:49:16;73.40;;;16.67;;
974;SDS011;6115;49.296;10.602;2024-01-16T19:54:17;73.97;;;16.37;;
974;SDS011;6115;49.296;10.602;2024-01-16T19:59:17;72.93;;;15.73;;
974;SDS011;6115;49.296;10.602;2024-01-16T20:04:18;75.77;;;18.47;;
974;SDS011;6115;49.296;10.602;2024-01-16T20:09:18;73.53;;;16.50;;
974;SDS011;6115;49.296;10.602;2024-01-16T20:14:19;74.67;;;17.40;;
974;SDS011;6115;49.296;10.602;2024-01-16T20:19:19;73.30;;;16.50;;
974;SDS011;6115;49.296;10.602;2024-01-16T20:24:20;73.77;;;16.77;;
974;SDS011;6115;49.296;10.602;2024-01-16T20:29:21;73.57;;;16.17;;
974;SDS011;6115;49.296;10.602;2024-01-16T20:34:22;73.53;;;16.40;;
974;SDS011;6115;49.296;10.602;2024-01-16T20:39:22;72.07;;;15.47;;
974;SDS011;6115;49.296;10.602;2024-01-16T20:44:26;79.87;;;15.27;;
974;SDS011;6115;49.296;10.602;2024-01-16T20:49:32;73.13;;;15.53;;
974;SDS011;6115;49.296;10.602;2024-01-16T20:54:33;71.87;;;14.10;;
974;SDS011;6115;49.296;10.602;2024-01-16T20:59:38;73.40;;;16.00;;
974;SDS011;6115;49.296;10.602;2024-01-16T21:04:39;73.23;;;15.20;;
974;SDS011;6115;49.296;10.602;2024-01-16T21:09:39;80.30;;;16.77;;
974;SDS011;6115;49.296;10.602;2024-01-16T21:14:42;72.90;;;15.50;;
974;SDS011;6115;49.296;10.602;2024-01-16T21:19:43;73.10;;;14.47;;
974;SDS011;6115;49.296;10.602;2024-01-16T21:24:44;72.50;;;14.57;;
974;SDS011;6115;49.296;10.602;2024-01-16T21:29:45;75.57;;;15.43;;
974;SDS011;6115;49.296;10.602;2024-01-16T21:34:49;71.87;;;13.60;;
974;SDS011;6115;49.296;10.602;2024-01-16T21:39:56;73.90;;;15.20;;
974;SDS011;6115;49.296;10.602;2024-01-16T21:44:57;72.40;;;14.50;;
974;SDS011;6115;49.296;10.602;2024-01-16T21:49:58;71.73;;;13.90;;
974;SDS011;6115;49.296;10.602;2024-01-16T21:54:58;72.93;;;15.30;;
974;SDS011;6115;49.296;10.602;2024-01-16T21:59:59;72.03;;;13.80;;
974;SDS011;6115;49.296;10.602;2024-01-16T22:05:00;71.80;;;13.80;;
974;SDS011;6115;49.296;10.602;2024-01-16T22:10:00;71.97;;;13.67;;
974;SDS011;6115;49.296;10.602;2024-01-16T22:15:01;72.27;;;14.63;;
974;SDS011;6115;49.296;10.602;2024-01-16T22:20:01;72.07;;;14.03;;
974;SDS011;6115;49.296;10.602;2024-01-16T22:25:05;74.70;;;15.77;;
974;SDS011;6115;49.296;10.602;2024-01-16T22:30:07;71.23;;;13.07;;
974;SDS011;6115;49.296;10.602;2024-01-16T22:35:09;72.13;;;14.00;;
974;SDS011;6115;49.296;10.602;2024-01-16T22:40:10;72.17;;;13.93;;
974;SDS011;6115;49.296;10.602;2024-01-16T22:45:11;74.10;;;14.87;;
974;SDS011;6115;49.296;10.602;2024-01-16T22:50:15;72.47;;;14.03;;
974;SDS011;6115;49.296;10.602;2024-01-16T22:55:15;73.60;;;15.37;;
974;SDS011;6115;49.296;10.602;2024-01-16T23:00:16;72.00;;;13.50;;
974;SDS011;6115;49.296;10.602;2024-01-16T23:05:20;72.33;;;13.47;;
974;SDS011;6115;49.296;10.602;2024-01-16T23:10:23;73.27;;;14.30;;
974;SDS011;6115;49.296;10.602;2024-01-16T23:15:25;72.47;;;13.90;;
974;SDS011;6115;49.296;10.602;2024-01-16T23:20:26;71.90;;;13.50;;
974;SDS011;6115;49.296;10.602;2024-01-16T23:25:30;73.87;;;14.60;;
974;SDS011;6115;49.296;10.602;2024-01-16T23:30:31;80.30;;;17.10;;
974;SDS011;6115;49.296;10.602;2024-01-16T23:35:31;72.37;;;14.00;;
974;SDS011;6115;49.296;10.602;2024-01-16T23:40:32;71.70;;;13.77;;
974;SDS011;6115;49.296;10.602;2024-01-16T23:45:32;71.57;;;13.33;;
974;SDS011;6115;49.296;10.602;2024-01-16T23:50:35;71.20;;;13.20;;
974;SDS011;6115;49.296;10.602;2024-01-16T23:55:38;72.23;;;13.90;;
